sensor_id;sensor_type;location;lat;lon;timestamp;P1;durP1;ratioP1;P2;durP2;ratioP2
5752;SDS011;2901;42.140;24.760;2023-02-16T00:00:11;39.13;;;23.50;;
5752;SDS011;2901;42.140;24.760;2023-02-16T00:02:40;36.70;;;24.27;;
5752;SDS011;2901;42.140;24.760;2023-02-16T00:05:25;39.67;;;25.43;;
5752;SDS011;2901;42.140;24.760;2023-02-16T00:07:51;48.90;;;26.03;;
5752;SDS011;2901;42.140;24.760;2023-02-16T00:10:17;37.67;;;25.67;;
5752;SDS011;2901;42.140;24.760;2023-02-16T00:12:43;45.03;;;25.97;;
5752;SDS011;2901;42.140;24.760;2023-02-16T00:15:27;40.77;;;24.63;;
5752;SDS011;2901;42.140;24.760;2023-02-16T00:17:53;39.63;;;24.67;;
5752;SDS011;2901;42.140;24.760;2023-02-16T00:20:20;41.13;;;25.60;;
5752;SDS011;2901;42.140;24.760;2023-02-16T00:22:46;41.23;;;25.20;;
5752;SDS011;2901;42.140;24.760;2023-02-16T00:25:11;42.03;;;25.60;;
5752;SDS011;2901;42.140;24.760;2023-02-16T00:27:37;39.20;;;25.73;;
5752;SDS011;2901;42.140;24.760;2023-02-16T00:30:05;44.13;;;25.10;;
5752;SDS011;2901;42.140;24.760;2023-02-16T00:32:39;36.13;;;25.13;;
5752;SDS011;2901;42.140;24.760;2023-02-16T00:35:04;39.63;;;22.93;;
5752;SDS011;2901;42.140;24.760;2023-02-16T00:37:37;36.47;;;22.97;;
5752;SDS011;2901;42.140;24.760;2023-02-16T00:40:03;35.27;;;22.87;;
5752;SDS011;2901;42.140;24.760;2023-02-16T00:42:28;34.63;;;23.40;;
5752;SDS011;2901;42.140;24.760;2023-02-16T00:44:56;45.37;;;23.03;;
5752;SDS011;2901;42.140;24.760;2023-02-16T00:47:29;34.00;;;23.07;;
5752;SDS011;2901;42.140;24.760;2023-02-16T00:50:02;34.70;;;22.87;;
5752;SDS011;2901;42.140;24.760;2023-02-16T00:52:32;34.33;;;23.13;;
5752;SDS011;2901;42.140;24.760;2023-02-16T00:54:58;36.50;;;22.77;;
5752;SDS011;2901;42.140;24.760;2023-02-16T00:57:24;37.40;;;24.27;;
5752;SDS011;2901;42.140;24.760;2023-02-16T01:00:03;40.10;;;24.33;;
5752;SDS011;2901;42.140;24.760;2023-02-16T01:02:36;36.67;;;23.07;;
5752;SDS011;2901;42.140;24.760;2023-02-16T01:05:02;35.40;;;22.93;;
5752;SDS011;2901;42.140;24.760;2023-02-16T01:07:27;34.37;;;23.37;;
5752;SDS011;2901;42.140;24.760;2023-02-16T01:10:11;35.43;;;22.80;;
5752;SDS011;2901;42.140;24.760;2023-02-16T01:12:55;32.93;;;22.57;;
5752;SDS011;2901;42.140;24.760;2023-02-16T01:15:21;32.70;;;23.37;;
5752;SDS011;2901;42.140;24.760;2023-02-16T01:17:49;33.83;;;21.63;;
5752;SDS011;2901;42.140;24.760;2023-02-16T01:20:16;35.50;;;23.57;;
5752;SDS011;2901;42.140;24.760;2023-02-16T01:22:44;32.97;;;22.63;;
5752;SDS011;2901;42.140;24.760;2023-02-16T01:25:09;33.47;;;22.23;;
5752;SDS011;2901;42.140;24.760;2023-02-16T01:27:35;33.80;;;22.27;;
5752;SDS011;2901;42.140;24.760;2023-02-16T01:30:04;35.93;;;23.73;;
5752;SDS011;2901;42.140;24.760;2023-02-16T01:32:31;37.80;;;23.23;;
5752;SDS011;2901;42.140;24.760;2023-02-16T01:34:57;41.20;;;24.13;;
5752;SDS011;2901;42.140;24.760;2023-02-16T01:37:23;38.43;;;24.27;;
5752;SDS011;2901;42.140;24.760;2023-02-16T01:39:48;37.13;;;23.57;;
5752;SDS011;2901;42.140;24.760;2023-02-16T01:42:22;39.47;;;25.30;;
5752;SDS011;2901;42.140;24.760;2023-02-16T01:49:42;39.30;;;24.07;;
5752;SDS011;2901;42.140;24.760;2023-02-16T01:52:21;36.50;;;23.73;;
5752;SDS011;2901;42.140;24.760;2023-02-16T01:54:57;43.47;;;24.63;;
5752;SDS011;2901;42.140;24.760;2023-02-16T02:00:26;34.00;;;21.83;;
5752;SDS011;2901;42.140;24.760;2023-02-16T02:03:10;35.90;;;22.93;;
5752;SDS011;2901;42.140;24.760;2023-02-16T02:06:00;37.63;;;22.17;;
5752;SDS011;2901;42.140;24.760;2023-02-16T02:11:10;42.97;;;23.23;;
5752;SDS011;2901;42.140;24.760;2023-02-16T02:13:51;37.77;;;22.77;;
5752;SDS011;2901;42.140;24.760;2023-02-16T02:16:24;37.20;;;22.60;;
5752;SDS011;2901;42.140;24.760;2023-02-16T02:18:51;37.17;;;22.97;;
5752;SDS011;2901;42.140;24.760;2023-02-16T02:21:29;37.20;;;22.47;;
5752;SDS011;2901;42.140;24.760;2023-02-16T02:30:07;34.43;;;21.67;;
5752;SDS011;2901;42.140;24.760;2023-02-16T02:32:49;34.77;;;22.90;;
5752;SDS011;2901;42.140;24.760;2023-02-16T02:35:52;36.93;;;23.10;;
5752;SDS011;2901;42.140;24.760;2023-02-16T02:41:51;39.90;;;23.73;;
5752;SDS011;2901;42.140;24.760;2023-02-16T02:44:49;33.87;;;23.40;;
5752;SDS011;2901;42.140;24.760;2023-02-16T02:47:19;38.53;;;23.07;;
5752;SDS011;2901;42.140;24.760;2023-02-16T02:49:49;38.10;;;23.73;;
5752;SDS011;2901;42.140;24.760;2023-02-16T02:52:19;38.57;;;23.53;;
5752;SDS011;2901;42.140;24.760;2023-02-16T02:54:46;41.10;;;25.20;;
5752;SDS011;2901;42.140;24.760;2023-02-16T02:57:42;41.57;;;24.17;;
5752;SDS011;2901;42.140;24.760;2023-02-16T03:03:24;38.93;;;24.53;;
5752;SDS011;2901;42.140;24.760;2023-02-16T03:06:04;41.60;;;25.37;;
5752;SDS011;2901;42.140;24.760;2023-02-16T03:08:43;41.13;;;25.20;;
5752;SDS011;2901;42.140;24.760;2023-02-16T03:11:14;39.57;;;24.10;;
5752;SDS011;2901;42.140;24.760;2023-02-16T03:14:16;42.77;;;25.50;;
5752;SDS011;2901;42.140;24.760;2023-02-16T03:16:47;41.07;;;24.47;;
5752;SDS011;2901;42.140;24.760;2023-02-16T03:19:34;38.10;;;25.23;;
5752;SDS011;2901;42.140;24.760;2023-02-16T03:22:20;39.73;;;24.67;;
5752;SDS011;2901;42.140;24.760;2023-02-16T03:25:04;40.87;;;25.90;;
5752;SDS011;2901;42.140;24.760;2023-02-16T03:27:48;38.37;;;24.53;;
5752;SDS011;2901;42.140;24.760;2023-02-16T03:30:32;44.30;;;25.33;;
5752;SDS011;2901;42.140;24.760;2023-02-16T03:32:58;39.83;;;25.53;;
5752;SDS011;2901;42.140;24.760;2023-02-16T03:35:24;42.20;;;25.50;;
5752;SDS011;2901;42.140;24.760;2023-02-16T03:37:50;39.70;;;24.77;;
5752;SDS011;2901;42.140;24.760;2023-02-16T03:40:15;36.83;;;23.97;;
5752;SDS011;2901;42.140;24.760;2023-02-16T03:43:11;38.43;;;23.87;;
5752;SDS011;2901;42.140;24.760;2023-02-16T03:45:38;41.40;;;24.93;;
5752;SDS011;2901;42.140;24.760;2023-02-16T03:48:06;39.30;;;24.63;;
5752;SDS011;2901;42.140;24.760;2023-02-16T03:50:32;39.87;;;26.10;;
5752;SDS011;2901;42.140;24.760;2023-02-16T03:52:57;37.17;;;23.23;;
5752;SDS011;2901;42.140;24.760;2023-02-16T03:55:36;40.67;;;24.87;;
5752;SDS011;2901;42.140;24.760;2023-02-16T03:58:04;40.33;;;24.30;;
5752;SDS011;2901;42.140;24.760;2023-02-16T04:00:31;36.83;;;23.50;;
5752;SDS011;2901;42.140;24.760;2023-02-16T04:02:57;37.10;;;23.80;;
5752;SDS011;2901;42.140;24.760;2023-02-16T04:05:22;36.47;;;23.83;;
5752;SDS011;2901;42.140;24.760;2023-02-16T04:07:48;41.27;;;24.40;;
5752;SDS011;2901;42.140;24.760;2023-02-16T04:10:13;38.23;;;23.33;;
5752;SDS011;2901;42.140;24.760;2023-02-16T04:12:39;38.43;;;24.10;;
5752;SDS011;2901;42.140;24.760;2023-02-16T04:15:08;39.30;;;23.40;;
5752;SDS011;2901;42.140;24.760;2023-02-16T04:17:39;39.03;;;23.50;;
5752;SDS011;2901;42.140;24.760;2023-02-16T04:20:05;36.37;;;22.70;;
5752;SDS011;2901;42.140;24.760;2023-02-16T04:22:34;37.27;;;24.17;;
5752;SDS011;2901;42.140;24.760;2023-02-16T04:24:59;37.90;;;23.60;;
5752;SDS011;2901;42.140;24.760;2023-02-16T04:27:24;37.40;;;24.20;;
5752;SDS011;2901;42.140;24.760;2023-02-16T04:29:50;40.67;;;23.37;;
5752;SDS011;2901;42.140;24.760;2023-02-16T04:32:15;37.73;;;22.13;;
5752;SDS011;2901;42.140;24.760;2023-02-16T04:34:41;37.70;;;23.00;;
5752;SDS011;2901;42.140;24.760;2023-02-16T04:37:06;38.13;;;22.97;;
5752;SDS011;2901;42.140;24.760;2023-02-16T04:39:32;38.17;;;24.83;;
5752;SDS011;2901;42.140;24.760;2023-02-16T04:41:57;35.60;;;23.23;;
5752;SDS011;2901;42.140;24.760;2023-02-16T04:44:23;37.27;;;23.70;;
5752;SDS011;2901;42.140;24.760;2023-02-16T04:46:48;36.83;;;23.60;;
5752;SDS011;2901;42.140;24.760;2023-02-16T04:49:13;40.73;;;25.87;;
5752;SDS011;2901;42.140;24.760;2023-02-16T04:51:39;35.43;;;23.87;;
5752;SDS011;2901;42.140;24.760;2023-02-16T04:54:05;44.27;;;24.57;;
5752;SDS011;2901;42.140;24.760;2023-02-16T04:56:31;40.70;;;24.70;;
5752;SDS011;2901;42.140;24.760;2023-02-16T04:58:56;46.77;;;25.67;;
5752;SDS011;2901;42.140;24.760;2023-02-16T05:01:23;49.77;;;28.03;;
5752;SDS011;2901;42.140;24.760;2023-02-16T05:03:49;49.33;;;26.47;;
5752;SDS011;2901;42.140;24.760;2023-02-16T05:06:14;48.83;;;27.37;;
5752;SDS011;2901;42.140;24.760;2023-02-16T05:08:40;54.00;;;28.57;;
5752;SDS011;2901;42.140;24.760;2023-02-16T05:11:06;57.83;;;28.47;;
5752;SDS011;2901;42.140;24.760;2023-02-16T05:13:50;41.50;;;26.50;;
5752;SDS011;2901;42.140;24.760;2023-02-16T05:16:34;46.83;;;26.27;;
5752;SDS011;2901;42.140;24.760;2023-02-16T05:18:59;48.27;;;27.87;;
5752;SDS011;2901;42.140;24.760;2023-02-16T05:21:25;57.33;;;27.77;;
5752;SDS011;2901;42.140;24.760;2023-02-16T05:23:57;55.17;;;30.47;;
5752;SDS011;2901;42.140;24.760;2023-02-16T05:26:22;60.27;;;30.47;;
5752;SDS011;2901;42.140;24.760;2023-02-16T05:28:48;55.07;;;29.13;;
5752;SDS011;2901;42.140;24.760;2023-02-16T05:31:13;55.37;;;28.43;;
5752;SDS011;2901;42.140;24.760;2023-02-16T05:33:38;50.80;;;27.73;;
5752;SDS011;2901;42.140;24.760;2023-02-16T05:36:04;52.93;;;30.33;;
5752;SDS011;2901;42.140;24.760;2023-02-16T05:38:29;56.43;;;30.27;;
5752;SDS011;2901;42.140;24.760;2023-02-16T05:40:55;58.70;;;29.40;;
5752;SDS011;2901;42.140;24.760;2023-02-16T05:43:20;52.90;;;30.70;;
5752;SDS011;2901;42.140;24.760;2023-02-16T05:45:45;61.47;;;28.93;;
5752;SDS011;2901;42.140;24.760;2023-02-16T05:48:11;49.37;;;28.40;;
5752;SDS011;2901;42.140;24.760;2023-02-16T05:50:36;58.93;;;29.03;;
5752;SDS011;2901;42.140;24.760;2023-02-16T05:53:01;80.53;;;30.70;;
5752;SDS011;2901;42.140;24.760;2023-02-16T05:55:27;49.37;;;27.90;;
5752;SDS011;2901;42.140;24.760;2023-02-16T05:57:52;60.23;;;28.80;;
5752;SDS011;2901;42.140;24.760;2023-02-16T06:00:18;47.03;;;29.43;;
5752;SDS011;2901;42.140;24.760;2023-02-16T06:02:43;46.47;;;27.60;;
5752;SDS011;2901;42.140;24.760;2023-02-16T06:05:09;52.77;;;27.13;;
5752;SDS011;2901;42.140;24.760;2023-02-16T06:07:34;44.10;;;27.90;;
5752;SDS011;2901;42.140;24.760;2023-02-16T06:09:59;49.80;;;27.47;;
5752;SDS011;2901;42.140;24.760;2023-02-16T06:12:25;53.27;;;28.50;;
5752;SDS011;2901;42.140;24.760;2023-02-16T06:14:50;47.77;;;27.23;;
5752;SDS011;2901;42.140;24.760;2023-02-16T06:17:15;46.63;;;27.33;;
5752;SDS011;2901;42.140;24.760;2023-02-16T06:19:41;45.53;;;25.87;;
5752;SDS011;2901;42.140;24.760;2023-02-16T06:22:06;44.83;;;26.13;;
5752;SDS011;2901;42.140;24.760;2023-02-16T06:24:31;49.83;;;24.83;;
5752;SDS011;2901;42.140;24.760;2023-02-16T06:26:57;43.57;;;27.20;;
5752;SDS011;2901;42.140;24.760;2023-02-16T06:29:23;39.80;;;25.73;;
5752;SDS011;2901;42.140;24.760;2023-02-16T06:31:48;48.67;;;30.17;;
5752;SDS011;2901;42.140;24.760;2023-02-16T06:34:13;72.27;;;35.03;;
5752;SDS011;2901;42.140;24.760;2023-02-16T06:36:39;60.37;;;28.27;;
5752;SDS011;2901;42.140;24.760;2023-02-16T06:39:04;43.80;;;25.93;;
5752;SDS011;2901;42.140;24.760;2023-02-16T06:41:29;41.33;;;25.10;;
5752;SDS011;2901;42.140;24.760;2023-02-16T06:44:02;45.97;;;25.30;;
5752;SDS011;2901;42.140;24.760;2023-02-16T06:46:29;44.97;;;27.00;;
5752;SDS011;2901;42.140;24.760;2023-02-16T06:48:55;44.47;;;28.40;;
5752;SDS011;2901;42.140;24.760;2023-02-16T06:51:21;47.47;;;27.13;;
5752;SDS011;2901;42.140;24.760;2023-02-16T06:53:47;41.63;;;25.07;;
5752;SDS011;2901;42.140;24.760;2023-02-16T06:56:13;46.43;;;27.23;;
5752;SDS011;2901;42.140;24.760;2023-02-16T06:58:38;43.53;;;26.20;;
5752;SDS011;2901;42.140;24.760;2023-02-16T07:01:04;44.77;;;26.30;;
5752;SDS011;2901;42.140;24.760;2023-02-16T07:03:29;47.67;;;26.30;;
5752;SDS011;2901;42.140;24.760;2023-02-16T07:05:55;46.47;;;27.03;;
5752;SDS011;2901;42.140;24.760;2023-02-16T07:08:20;41.17;;;26.43;;
5752;SDS011;2901;42.140;24.760;2023-02-16T07:10:45;40.13;;;24.60;;
5752;SDS011;2901;42.140;24.760;2023-02-16T07:13:11;41.53;;;25.57;;
5752;SDS011;2901;42.140;24.760;2023-02-16T07:15:37;37.37;;;24.40;;
5752;SDS011;2901;42.140;24.760;2023-02-16T07:18:03;38.83;;;23.53;;
5752;SDS011;2901;42.140;24.760;2023-02-16T07:20:28;36.30;;;23.60;;
5752;SDS011;2901;42.140;24.760;2023-02-16T07:22:54;40.60;;;26.83;;
5752;SDS011;2901;42.140;24.760;2023-02-16T07:25:19;41.20;;;24.87;;
5752;SDS011;2901;42.140;24.760;2023-02-16T07:27:45;36.23;;;23.10;;
5752;SDS011;2901;42.140;24.760;2023-02-16T07:30:11;38.07;;;23.83;;
5752;SDS011;2901;42.140;24.760;2023-02-16T07:32:38;42.47;;;27.33;;
5752;SDS011;2901;42.140;24.760;2023-02-16T07:35:03;42.23;;;25.73;;
5752;SDS011;2901;42.140;24.760;2023-02-16T07:37:29;40.77;;;26.20;;
5752;SDS011;2901;42.140;24.760;2023-02-16T07:39:54;42.00;;;24.73;;
5752;SDS011;2901;42.140;24.760;2023-02-16T07:42:20;37.17;;;24.00;;
5752;SDS011;2901;42.140;24.760;2023-02-16T07:44:45;38.13;;;23.93;;
5752;SDS011;2901;42.140;24.760;2023-02-16T07:47:11;38.87;;;23.53;;
5752;SDS011;2901;42.140;24.760;2023-02-16T07:49:38;40.73;;;24.93;;
5752;SDS011;2901;42.140;24.760;2023-02-16T07:52:04;36.53;;;23.37;;
5752;SDS011;2901;42.140;24.760;2023-02-16T07:54:30;44.67;;;25.10;;
5752;SDS011;2901;42.140;24.760;2023-02-16T07:56:56;35.97;;;23.43;;
5752;SDS011;2901;42.140;24.760;2023-02-16T07:59:22;37.10;;;23.93;;
5752;SDS011;2901;42.140;24.760;2023-02-16T08:01:47;34.20;;;23.87;;
5752;SDS011;2901;42.140;24.760;2023-02-16T08:04:12;43.03;;;25.47;;
5752;SDS011;2901;42.140;24.760;2023-02-16T08:06:38;40.05;;;25.40;;
5752;SDS011;2901;42.140;24.760;2023-02-16T08:09:03;37.53;;;25.45;;
5752;SDS011;2901;42.140;24.760;2023-02-16T08:11:29;45.33;;;26.45;;
5752;SDS011;2901;42.140;24.760;2023-02-16T08:13:54;48.10;;;24.25;;
5752;SDS011;2901;42.140;24.760;2023-02-16T08:16:21;39.20;;;24.65;;
5752;SDS011;2901;42.140;24.760;2023-02-16T08:18:48;35.85;;;24.42;;
5752;SDS011;2901;42.140;24.760;2023-02-16T08:21:18;45.25;;;26.88;;
5752;SDS011;2901;42.140;24.760;2023-02-16T08:23:54;46.38;;;26.15;;
5752;SDS011;2901;42.140;24.760;2023-02-16T08:26:31;40.53;;;25.70;;
5752;SDS011;2901;42.140;24.760;2023-02-16T08:29:01;45.80;;;26.00;;
5752;SDS011;2901;42.140;24.760;2023-02-16T08:31:27;41.17;;;26.25;;
5752;SDS011;2901;42.140;24.760;2023-02-16T08:33:54;41.40;;;26.17;;
5752;SDS011;2901;42.140;24.760;2023-02-16T08:36:24;40.40;;;23.65;;
5752;SDS011;2901;42.140;24.760;2023-02-16T08:38:53;31.15;;;22.40;;
5752;SDS011;2901;42.140;24.760;2023-02-16T08:41:20;33.53;;;21.02;;
5752;SDS011;2901;42.140;24.760;2023-02-16T08:43:47;30.92;;;21.48;;
5752;SDS011;2901;42.140;24.760;2023-02-16T08:46:14;36.08;;;22.00;;
5752;SDS011;2901;42.140;24.760;2023-02-16T08:48:40;31.50;;;20.27;;
5752;SDS011;2901;42.140;24.760;2023-02-16T08:51:05;28.83;;;19.85;;
5752;SDS011;2901;42.140;24.760;2023-02-16T08:53:32;39.88;;;20.58;;
5752;SDS011;2901;42.140;24.760;2023-02-16T08:55:59;37.63;;;21.45;;
5752;SDS011;2901;42.140;24.760;2023-02-16T08:58:27;32.60;;;20.45;;
5752;SDS011;2901;42.140;24.760;2023-02-16T09:00:53;39.35;;;20.67;;
5752;SDS011;2901;42.140;24.760;2023-02-16T09:03:18;31.48;;;20.67;;
5752;SDS011;2901;42.140;24.760;2023-02-16T09:05:44;35.03;;;20.55;;
5752;SDS011;2901;42.140;24.760;2023-02-16T09:08:10;39.17;;;21.55;;
5752;SDS011;2901;42.140;24.760;2023-02-16T09:10:36;31.42;;;19.30;;
5752;SDS011;2901;42.140;24.760;2023-02-16T09:13:02;24.48;;;18.88;;
5752;SDS011;2901;42.140;24.760;2023-02-16T09:15:29;28.65;;;18.83;;
5752;SDS011;2901;42.140;24.760;2023-02-16T09:17:56;39.13;;;19.08;;
5752;SDS011;2901;42.140;24.760;2023-02-16T09:20:21;34.58;;;19.67;;
5752;SDS011;2901;42.140;24.760;2023-02-16T09:22:47;35.88;;;21.77;;
5752;SDS011;2901;42.140;24.760;2023-02-16T09:25:13;29.15;;;19.23;;
5752;SDS011;2901;42.140;24.760;2023-02-16T09:27:39;30.75;;;21.35;;
5752;SDS011;2901;42.140;24.760;2023-02-16T09:30:05;24.98;;;20.73;;
5752;SDS011;2901;42.140;24.760;2023-02-16T09:32:33;27.08;;;19.48;;
5752;SDS011;2901;42.140;24.760;2023-02-16T09:34:59;32.72;;;19.40;;
5752;SDS011;2901;42.140;24.760;2023-02-16T09:37:24;26.95;;;20.17;;
5752;SDS011;2901;42.140;24.760;2023-02-16T09:39:50;37.38;;;21.50;;
5752;SDS011;2901;42.140;24.760;2023-02-16T09:42:20;28.02;;;20.48;;
5752;SDS011;2901;42.140;24.760;2023-02-16T09:47:36;29.85;;;21.33;;
5752;SDS011;2901;42.140;24.760;2023-02-16T09:50:11;31.33;;;18.92;;
5752;SDS011;2901;42.140;24.760;2023-02-16T09:52:46;26.25;;;19.83;;
5752;SDS011;2901;42.140;24.760;2023-02-16T09:55:13;30.83;;;19.63;;
5752;SDS011;2901;42.140;24.760;2023-02-16T10:08:34;30.48;;;19.80;;
5752;SDS011;2901;42.140;24.760;2023-02-16T10:14:15;27.95;;;20.63;;
5752;SDS011;2901;42.140;24.760;2023-02-16T10:19:45;31.55;;;21.10;;
5752;SDS011;2901;42.140;24.760;2023-02-16T10:22:17;21.90;;;19.17;;
5752;SDS011;2901;42.140;24.760;2023-02-16T10:24:57;24.75;;;19.77;;
5752;SDS011;2901;42.140;24.760;2023-02-16T10:27:23;22.33;;;19.85;;
5752;SDS011;2901;42.140;24.760;2023-02-16T10:29:57;24.50;;;19.25;;
5752;SDS011;2901;42.140;24.760;2023-02-16T10:32:26;31.88;;;19.52;;
5752;SDS011;2901;42.140;24.760;2023-02-16T10:35:04;32.72;;;20.42;;
5752;SDS011;2901;42.140;24.760;2023-02-16T10:43:09;24.48;;;18.92;;
5752;SDS011;2901;42.140;24.760;2023-02-16T10:45:58;31.40;;;20.00;;
5752;SDS011;2901;42.140;24.760;2023-02-16T10:48:25;27.45;;;19.15;;
5752;SDS011;2901;42.140;24.760;2023-02-16T10:53:39;24.25;;;19.45;;
5752;SDS011;2901;42.140;24.760;2023-02-16T10:58:56;20.10;;;16.83;;
5752;SDS011;2901;42.140;24.760;2023-02-16T11:01:34;21.88;;;17.50;;
5752;SDS011;2901;42.140;24.760;2023-02-16T11:04:02;25.65;;;16.83;;
5752;SDS011;2901;42.140;24.760;2023-02-16T11:06:27;28.05;;;17.67;;
5752;SDS011;2901;42.140;24.760;2023-02-16T11:08:54;20.45;;;17.08;;
5752;SDS011;2901;42.140;24.760;2023-02-16T11:11:26;26.48;;;17.65;;
5752;SDS011;2901;42.140;24.760;2023-02-16T11:14:01;17.50;;;15.70;;
5752;SDS011;2901;42.140;24.760;2023-02-16T11:16:31;21.75;;;16.65;;
5752;SDS011;2901;42.140;24.760;2023-02-16T11:18:58;19.85;;;15.93;;
5752;SDS011;2901;42.140;24.760;2023-02-16T11:21:46;24.05;;;16.83;;
5752;SDS011;2901;42.140;24.760;2023-02-16T11:24:31;20.88;;;16.65;;
5752;SDS011;2901;42.140;24.760;2023-02-16T11:27:00;20.60;;;16.27;;
5752;SDS011;2901;42.140;24.760;2023-02-16T11:29:46;23.92;;;16.60;;
5752;SDS011;2901;42.140;24.760;2023-02-16T11:32:12;25.58;;;17.70;;
5752;SDS011;2901;42.140;24.760;2023-02-16T11:37:23;17.55;;;15.40;;
5752;SDS011;2901;42.140;24.760;2023-02-16T11:39:53;22.55;;;15.90;;
5752;SDS011;2901;42.140;24.760;2023-02-16T11:42:35;22.95;;;15.25;;
5752;SDS011;2901;42.140;24.760;2023-02-16T11:45:06;19.70;;;17.05;;
5752;SDS011;2901;42.140;24.760;2023-02-16T11:47:33;19.20;;;15.85;;
5752;SDS011;2901;42.140;24.760;2023-02-16T11:52:48;21.05;;;14.82;;
5752;SDS011;2901;42.140;24.760;2023-02-16T11:57:51;18.55;;;15.90;;
5752;SDS011;2901;42.140;24.760;2023-02-16T12:00:19;29.13;;;16.30;;
5752;SDS011;2901;42.140;24.760;2023-02-16T12:03:05;21.27;;;15.88;;
5752;SDS011;2901;42.140;24.760;2023-02-16T12:05:38;22.38;;;15.38;;
5752;SDS011;2901;42.140;24.760;2023-02-16T12:27:07;22.75;;;16.83;;
5752;SDS011;2901;42.140;24.760;2023-02-16T12:29:49;25.17;;;16.38;;
5752;SDS011;2901;42.140;24.760;2023-02-16T12:45:26;34.50;;;17.40;;
5752;SDS011;2901;42.140;24.760;2023-02-16T12:47:58;24.88;;;16.08;;
5752;SDS011;2901;42.140;24.760;2023-02-16T12:50:40;20.27;;;15.70;;
5752;SDS011;2901;42.140;24.760;2023-02-16T12:55:47;23.80;;;17.38;;
5752;SDS011;2901;42.140;24.760;2023-02-16T12:58:23;30.90;;;16.15;;
5752;SDS011;2901;42.140;24.760;2023-02-16T13:11:31;27.67;;;18.88;;
5752;SDS011;2901;42.140;24.760;2023-02-16T13:14:03;22.63;;;16.25;;
5752;SDS011;2901;42.140;24.760;2023-02-16T13:19:09;20.30;;;16.48;;
5752;SDS011;2901;42.140;24.760;2023-02-16T13:29:46;19.02;;;15.95;;
5752;SDS011;2901;42.140;24.760;2023-02-16T13:35:24;18.20;;;15.23;;
5752;SDS011;2901;42.140;24.760;2023-02-16T13:41:02;17.15;;;15.13;;
5752;SDS011;2901;42.140;24.760;2023-02-16T13:43:46;19.85;;;15.85;;
5752;SDS011;2901;42.140;24.760;2023-02-16T13:48:52;17.45;;;14.98;;
5752;SDS011;2901;42.140;24.760;2023-02-16T13:51:19;18.98;;;15.07;;
5752;SDS011;2901;42.140;24.760;2023-02-16T13:54:04;25.00;;;14.85;;
5752;SDS011;2901;42.140;24.760;2023-02-16T13:56:33;21.42;;;16.15;;
5752;SDS011;2901;42.140;24.760;2023-02-16T14:01:42;18.35;;;15.73;;
5752;SDS011;2901;42.140;24.760;2023-02-16T14:06:45;25.40;;;16.23;;
5752;SDS011;2901;42.140;24.760;2023-02-16T14:09:29;20.05;;;14.77;;
5752;SDS011;2901;42.140;24.760;2023-02-16T14:14:57;21.80;;;13.82;;
5752;SDS011;2901;42.140;24.760;2023-02-16T14:17:26;17.50;;;14.00;;
5752;SDS011;2901;42.140;24.760;2023-02-16T14:22:47;17.95;;;14.88;;
5752;SDS011;2901;42.140;24.760;2023-02-16T14:35:32;17.55;;;15.40;;
5752;SDS011;2901;42.140;24.760;2023-02-16T14:38:03;20.85;;;14.00;;
5752;SDS011;2901;42.140;24.760;2023-02-16T14:43:05;23.65;;;15.10;;
5752;SDS011;2901;42.140;24.760;2023-02-16T14:45:47;19.83;;;14.40;;
5752;SDS011;2901;42.140;24.760;2023-02-16T14:56:40;16.40;;;14.52;;
5752;SDS011;2901;42.140;24.760;2023-02-16T15:01:59;16.23;;;14.40;;
5752;SDS011;2901;42.140;24.760;2023-02-16T15:04:45;20.77;;;15.05;;
5752;SDS011;2901;42.140;24.760;2023-02-16T15:07:11;24.38;;;14.25;;
5752;SDS011;2901;42.140;24.760;2023-02-16T15:09:39;24.20;;;15.20;;
5752;SDS011;2901;42.140;24.760;2023-02-16T15:12:07;22.17;;;15.73;;
5752;SDS011;2901;42.140;24.760;2023-02-16T15:17:27;22.30;;;15.68;;
5752;SDS011;2901;42.140;24.760;2023-02-16T15:19:57;21.92;;;16.20;;
5752;SDS011;2901;42.140;24.760;2023-02-16T15:22:34;27.92;;;16.15;;
5752;SDS011;2901;42.140;24.760;2023-02-16T15:25:15;16.70;;;13.43;;
5752;SDS011;2901;42.140;24.760;2023-02-16T15:27:53;18.13;;;14.23;;
5752;SDS011;2901;42.140;24.760;2023-02-16T15:30:24;20.38;;;14.65;;
5752;SDS011;2901;42.140;24.760;2023-02-16T15:33:04;21.23;;;15.27;;
5752;SDS011;2901;42.140;24.760;2023-02-16T15:35:33;17.13;;;14.05;;
5752;SDS011;2901;42.140;24.760;2023-02-16T15:40:45;20.42;;;13.77;;
5752;SDS011;2901;42.140;24.760;2023-02-16T15:43:17;22.95;;;14.77;;
5752;SDS011;2901;42.140;24.760;2023-02-16T15:45:55;25.25;;;15.00;;
5752;SDS011;2901;42.140;24.760;2023-02-16T15:50:54;31.27;;;17.35;;
5752;SDS011;2901;42.140;24.760;2023-02-16T15:53:35;37.80;;;18.77;;
5752;SDS011;2901;42.140;24.760;2023-02-16T15:56:29;29.52;;;18.33;;
5752;SDS011;2901;42.140;24.760;2023-02-16T15:59:37;30.27;;;16.25;;
5752;SDS011;2901;42.140;24.760;2023-02-16T16:05:08;43.30;;;22.98;;
5752;SDS011;2901;42.140;24.760;2023-02-16T16:07:45;29.48;;;18.15;;
5752;SDS011;2901;42.140;24.760;2023-02-16T16:12:44;24.67;;;15.25;;
5752;SDS011;2901;42.140;24.760;2023-02-16T16:15:14;28.58;;;17.73;;
5752;SDS011;2901;42.140;24.760;2023-02-16T16:17:44;33.22;;;17.70;;
5752;SDS011;2901;42.140;24.760;2023-02-16T16:20:22;42.83;;;20.58;;
5752;SDS011;2901;42.140;24.760;2023-02-16T16:28:11;36.25;;;18.02;;
5752;SDS011;2901;42.140;24.760;2023-02-16T16:33:50;46.67;;;23.55;;
5752;SDS011;2901;42.140;24.760;2023-02-16T16:36:15;46.97;;;22.02;;
5752;SDS011;2901;42.140;24.760;2023-02-16T16:38:41;50.15;;;24.95;;
5752;SDS011;2901;42.140;24.760;2023-02-16T16:41:10;47.55;;;27.60;;
5752;SDS011;2901;42.140;24.760;2023-02-16T16:43:53;55.90;;;28.95;;
5752;SDS011;2901;42.140;24.760;2023-02-16T16:46:26;56.03;;;30.52;;
5752;SDS011;2901;42.140;24.760;2023-02-16T16:48:57;56.03;;;30.50;;
5752;SDS011;2901;42.140;24.760;2023-02-16T16:53:53;49.15;;;29.35;;
5752;SDS011;2901;42.140;24.760;2023-02-16T16:56:21;84.47;;;46.05;;
5752;SDS011;2901;42.140;24.760;2023-02-16T16:58:48;77.97;;;42.25;;
5752;SDS011;2901;42.140;24.760;2023-02-16T17:01:15;67.75;;;31.25;;
5752;SDS011;2901;42.140;24.760;2023-02-16T17:03:41;64.10;;;28.20;;
5752;SDS011;2901;42.140;24.760;2023-02-16T17:06:06;61.83;;;30.33;;
5752;SDS011;2901;42.140;24.760;2023-02-16T17:08:32;49.15;;;26.38;;
5752;SDS011;2901;42.140;24.760;2023-02-16T17:10:58;47.83;;;24.67;;
5752;SDS011;2901;42.140;24.760;2023-02-16T17:13:24;39.67;;;24.02;;
5752;SDS011;2901;42.140;24.760;2023-02-16T17:15:55;49.58;;;26.60;;
5752;SDS011;2901;42.140;24.760;2023-02-16T17:18:25;53.72;;;28.50;;
5752;SDS011;2901;42.140;24.760;2023-02-16T17:20:50;64.78;;;30.33;;
5752;SDS011;2901;42.140;24.760;2023-02-16T17:23:17;66.65;;;30.65;;
5752;SDS011;2901;42.140;24.760;2023-02-16T17:25:43;39.17;;;22.48;;
5752;SDS011;2901;42.140;24.760;2023-02-16T17:28:10;45.88;;;21.25;;
5752;SDS011;2901;42.140;24.760;2023-02-16T17:30:36;46.88;;;24.27;;
5752;SDS011;2901;42.140;24.760;2023-02-16T17:33:02;37.55;;;22.13;;
5752;SDS011;2901;42.140;24.760;2023-02-16T17:35:28;44.35;;;23.15;;
5752;SDS011;2901;42.140;24.760;2023-02-16T17:37:55;40.95;;;21.73;;
5752;SDS011;2901;42.140;24.760;2023-02-16T17:40:21;37.20;;;23.33;;
5752;SDS011;2901;42.140;24.760;2023-02-16T17:42:47;45.95;;;25.67;;
5752;SDS011;2901;42.140;24.760;2023-02-16T17:45:14;43.38;;;25.25;;
5752;SDS011;2901;42.140;24.760;2023-02-16T17:47:42;41.42;;;22.55;;
5752;SDS011;2901;42.140;24.760;2023-02-16T17:50:12;37.00;;;24.77;;
5752;SDS011;2901;42.140;24.760;2023-02-16T17:52:39;39.28;;;24.95;;
5752;SDS011;2901;42.140;24.760;2023-02-16T17:55:05;43.25;;;23.77;;